Tiempo atmosférico en la estación meteorológica de Teror, Las Palmas (683 m.)



Fecha
DESCASC
Temp. máxima en grados centígrados (hora)
DESCASC
Temp. mínima en grados centígrados (hora)
DESCASC
Temp. media en grados centígrados
DESCASC
Racha de viento máxima en m/sg (hora)
DESCASC
Velocidad máxima media en intervalos de 10 minutos(hora)
DESCASC
Precipitaciones diarias en mm
DESCASC
Precipitaciones de 00:00 a 06:00 en mm
DESCASC
Precipitaciones de 06:00 a 12:00 en mm
DESCASC
Precipitaciones de 12:00 a 18:00 en mm
DESCASC
Precipitaciones de 18:00 a 24:00 en mm
DESCASC
17-03-2019 18.1 (12:00) 7.1 (02:40) 12.6 8.33 (12:30) 4.44 (12:30) 0 0 0 0 0
16-03-2019 26.1 (10:10) 7 (23:40) 16.6 5.28 (12:30) 3.06 (12:30) 0 0 0 0 0
15-03-2019 25.1 (14:20) 6.7 (02:20) 15.9 5.83 (14:40) 3.33 (13:30) 0 0 0 0 0
14-03-2019 18.8 (16:00) 10.1 (00:00) 14.4 4.72 (13:40) 2.78 (14:20) 0 0 0 0 0
13-03-2019 17.8 (13:20) 7.9 (00:00) 12.8 6.11 (14:40) 3.61 (13:40) 0 0 0 0 0
12-03-2019 21.9 (08:50) 9.2 (00:00) 15.5 4.17 (13:50) 2.5 (13:40) 0 0 0 0 0
11-03-2019 23.1 (09:00) 9.6 (00:00) 16.4 4.44 (14:40) 2.5 (03:10) 0 0 0 0 0
10-03-2019 22.7 (14:30) 9.8 (00:00) 16.3 5.56 (00:40) 2.78 (00:40) 0 0 0 0 0
09-03-2019 15.2 (10:20) 10 (00:00) 12.6 8.33 (02:10) 4.44 (17:30) 0.4 0.4 0 0 0
08-03-2019 14.8 (12:20) 10.2 (00:00) 12.5 12.5 (09:30) 6.39 (09:10) 3.6 0.8 2.6 0 0.2
07-03-2019 14.8 (13:00) 10.3 (00:00) 12.6 8.61 (13:20) 4.44 (05:30) 1.4 0.2 0.2 0.2 0.8
06-03-2019 17.8 (11:50) 9.2 (00:00) 13.5 10.28 (00:30) 5.83 (00:20) 1.6 0 0.8 0.6 0.2
05-03-2019 18.8 (15:10) 9.9 (00:00) 14.3 8.06 (23:10) 4.17 (23:59) 0 0 0 0 0
04-03-2019 17.4 (15:50) 9.9 (00:00) 13.6 6.11 (15:20) 3.06 (14:20) 0 0 0 0 0
03-03-2019 17.1 (16:10) 10.1 (00:00) 13.6 7.22 (04:40) 3.61 (18:30) 1.4 0.6 0.6 0 0.2
02-03-2019 15.9 (13:30) 8.9 (00:00) 12.4 5.56 (12:00) 3.06 (10:40) 1 0.2 0.8 0 0
01-03-2019 17 (12:30) 7.3 (00:00) 12.2 6.39 (14:10) 3.06 (13:20) 0.6 0 0 0 0.6
28-02-2019 17.8 (12:30) 6.9 (00:00) 12.3 5.56 (12:40) 3.61 (12:40) 0 0 0 0 0
27-02-2019 22.3 (09:30) 6.5 (00:00) 14.4 5 (11:50) 2.5 (04:00) 0 0 0 0 0
26-02-2019 23.2 (10:20) 9.7 (00:00) 16.5 8.61 (19:20) 5 (19:20) 0 0 0 0 0
25-02-2019 23.8 (09:40) 8.9 (00:00) 16.3 7.78 (20:20) 4.72 (20:20) 0 0 0 0 0
24-02-2019 25 (16:20) 10.1 (00:00) 17.6 7.5 (09:40) 4.17 (13:20) 0 0 0 0 0
23-02-2019 25.8 (14:10) 12.4 (00:00) 19.1 10.28 (12:10) 5.28 (14:30) 0 0 0 0 0
22-02-2019 25.2 (16:00) 8.8 (00:00) 17 12.78 (12:30) 6.67 (12:00) 0 0 0 0 0
21-02-2019 20.4 (16:50) 7 (00:00) 13.7 6.39 (11:30) 3.61 (13:00) 0.2 0 0.2 0 0
20-02-2019 17 (12:10) 6.3 (00:00) 11.7 6.94 (11:10) 3.89 (11:30) 0 0 0 0 0

Gráficas

Temp. máximas Temp. mínimas Temp. medias Precipitaciones Rachas de viento máximas Velocidades máximas media en intervalos de 10 minutos

Datos horarios

Fecha y hora oficial Temperatura (ºC) Velocidad del viento (km/h) Dirección del viento Racha (km/h) Dirección de racha Precipitación (mm) Presión (hPa) Tendencia (hPa) Humedad (%)
2019-03-21 23:00:00 10.7 3 Este 13 Este 0 -- -- 99
2019-03-21 22:00:00 10.7 4 Norte 10 Nordeste 0 -- -- 98
2019-03-21 21:00:00 10.7 2 Este 13 Nordeste 0 -- -- 96
2019-03-21 20:00:00 11.9 6 Nordeste 13 Nordeste 0 -- -- 96
2019-03-21 19:00:00 12.5 6 Nordeste 18 Este 0 -- -- 93
2019-03-21 18:00:00 13.9 9 Nordeste 15 Nordeste 0 -- -- 85
2019-03-21 17:00:00 14.9 6 Nordeste 20 Nordeste 0 -- -- 84
2019-03-21 16:00:00 18.5 8 Este 18 Nordeste 0 -- -- 68
2019-03-21 15:00:00 18 8 Nordeste 19 Este 0 -- -- 65
2019-03-21 14:00:00 18.9 9 Nordeste 18 Nordeste 0 -- -- 57
2019-03-21 13:00:00 17.8 10 Nordeste 21 Este 0 -- -- 65
2019-03-21 12:00:00 16.8 10 Nordeste 21 Este 0 -- -- 69
2019-03-21 11:00:00 18.4 9 Este 19 Este 0 -- -- 65
2019-03-21 10:00:00 17 9 Este 14 Este 0 -- -- 76
2019-03-21 09:00:00 16.5 6 Este 11 Este 0 -- -- 74
2019-03-21 08:00:00 10.2 2 Sudoeste 10 Sudoeste 0 -- -- 100
2019-03-21 07:00:00 9.2 8 Sudoeste 11 Sudoeste 0 -- -- 100
2019-03-21 06:00:00 8.5 6 Sudoeste 10 Sudoeste 0 -- -- 100
2019-03-21 05:00:00 8.1 3 Sudoeste 9 Sur 0 -- -- 98
2019-03-21 04:00:00 8.4 3 Sur 8 Sudoeste 0 -- -- 100
2019-03-21 03:00:00 9.1 4 Sur 9 Sudoeste 0 -- -- 97
2019-03-21 02:00:00 10.8 3 Norte 10 Sudeste 0 -- -- 100
2019-03-21 01:00:00 11 4 Sudoeste 8 Noroeste 0 -- -- 99
2019-03-21 00:00:00 10.8 5 Noroeste 9 Oeste 0 -- -- 100
2019-03-20 23:00:00 11.1 0 Calma 11 Norte 0 -- -- 99
2019-03-20 22:00:00 11.7 3 Norte 9 Noroeste 0 -- -- 97
2019-03-20 21:00:00 11.8 3 Nordeste 10 Nordeste 0 -- -- 96
2019-03-20 20:00:00 11.4 5 Noroeste 10 Norte 0 -- -- 95
2019-03-20 19:00:00 12.2 4 Norte 9 Norte 0 -- -- 93
2019-03-20 18:00:00 13.9 5 Norte 11 Nordeste 0 -- -- 84
2019-03-20 17:00:00 15.3 6 Norte 15 Norte 0 -- -- 82
2019-03-20 16:00:00 16.7 8 Norte 19 Norte 0 -- -- 75
2019-03-20 15:00:00 18 8 Norte 22 Noroeste 0 -- -- 72
2019-03-20 14:00:00 17.5 9 Nordeste 19 Nordeste 0 -- -- 75
2019-03-20 13:00:00 17.7 8 Nordeste 19 Este 0 -- -- 71
2019-03-20 12:00:00 17.3 10 Nordeste 19 Nordeste 0 -- -- 70
2019-03-20 11:00:00 16.5 7 Este 17 Nordeste 0 -- -- 75
2019-03-20 10:00:00 14.1 8 Este 14 Este 0 -- -- 82
2019-03-20 09:00:00 14.8 4 Este 10 Nordeste 0 -- -- 82
2019-03-20 08:00:00 9.7 7 Nordeste 11 Norte 0 -- -- 100
2019-03-20 07:00:00 7.5 5 Oeste 9 Oeste 0 -- -- 100
2019-03-20 06:00:00 7.3 5 Oeste 8 Oeste 0 -- -- 100
2019-03-20 05:00:00 9 4 Noroeste 11 Noroeste 0 -- -- 99
2019-03-20 04:00:00 8.4 4 Oeste 8 Oeste 0 -- -- 98
2019-03-20 03:00:00 9.4 5 Noroeste 6 Oeste 0 -- -- 97
2019-03-20 02:00:00 10.3 5 Oeste 9 Oeste 0 -- -- 95
2019-03-20 01:00:00 10.8 4 Nordeste 9 Sudeste 0 -- -- 95
2019-03-20 00:00:00 10.6 0 Calma 5 Sudoeste 0 -- -- 94
2019-03-19 23:00:00 11 2 Nordeste 9 Norte 0 -- -- 93
2019-03-19 22:00:00 11 4 Noroeste 11 Nordeste 0 -- -- 91
2019-03-19 21:00:00 11.2 5 Nordeste 16 Norte 0 -- -- 93
2019-03-19 20:00:00 11.5 6 Norte 13 Nordeste 0 -- -- 96
2019-03-19 19:00:00 11.5 6 Norte 14 Norte 0 -- -- 93
2019-03-19 18:00:00 12.1 8 Norte 17 Norte 0 -- -- 90
2019-03-19 17:00:00 13.5 8 Nordeste 19 Norte 0 -- -- 81
2019-03-19 16:00:00 14.4 10 Norte 20 Nordeste 0 -- -- 78
2019-03-19 15:00:00 15.8 10 Nordeste 23 Nordeste 0 -- -- 75
2019-03-19 14:00:00 16.7 13 Nordeste 20 Este 0 -- -- 74
2019-03-19 13:00:00 16 10 Nordeste 19 Nordeste 0 -- -- 75
2019-03-19 12:00:00 13 6 Nordeste 21 Nordeste 0 -- -- 86
2019-03-19 11:00:00 13.3 9 Nordeste 28 Este 0 -- -- 85
2019-03-19 10:00:00 11.4 10 Nordeste 18 Norte 0 -- -- 94
2019-03-19 09:00:00 11.7 7 Nordeste 18 Norte 0 -- -- 92
2019-03-19 08:00:00 10.7 6 Nordeste 17 Nordeste 0 -- -- 98
2019-03-19 07:00:00 10.6 6 Norte 12 Norte 0 -- -- 98
2019-03-19 06:00:00 10.3 4 Noroeste 17 Nordeste 0 -- -- 99
2019-03-19 05:00:00 10.9 8 Nordeste 19 Nordeste 0 -- -- 100
2019-03-19 04:00:00 10.9 9 Nordeste 24 Nordeste 0.2 -- -- 99
2019-03-19 03:00:00 11.1 3 Sudeste 17 Este 0 -- -- 95
2019-03-19 02:00:00 11.3 4 Nordeste 13 Nordeste 0 -- -- 95
2019-03-19 01:00:00 11.3 4 Este 10 Nordeste 0 -- -- 94
2019-03-19 00:00:00 11.5 4 Nordeste 10 Sudoeste 0 -- -- 92
2019-03-18 23:00:00 11.3 6 Norte 14 Norte 0 -- -- 91
2019-03-18 22:00:00 10.9 3 Oeste 15 Nordeste 0 -- -- 94
2019-03-18 21:00:00 11.6 6 Nordeste 13 Norte 0 -- -- 95
2019-03-18 20:00:00 11.6 5 Norte 15 Norte 0 -- -- 96
2019-03-18 19:00:00 11.9 7 Norte 14 Norte 0 -- -- 92
2019-03-18 18:00:00 12.7 7 Noroeste 17 Norte 0 -- -- 86
2019-03-18 17:00:00 13.5 8 Norte 18 Norte 0 -- -- 80
2019-03-18 16:00:00 15.9 11 Norte 19 Nordeste 0 -- -- 73
2019-03-18 15:00:00 15.3 0 Calma 19 Nordeste 0 -- -- 78
2019-03-18 14:00:00 17.4 9 Nordeste 21 Norte 0 -- -- 69
2019-03-18 13:00:00 15.3 11 Norte 19 Norte 0 -- -- 79
2019-03-18 12:00:00 15.3 7 Norte 16 Nordeste 0 -- -- 77
2019-03-18 11:00:00 15.1 9 Nordeste 17 Norte 0 -- -- 81
2019-03-18 10:00:00 12.7 6 Norte 14 Norte 0 -- -- 89
2019-03-18 09:00:00 13 3 Norte 10 Nordeste 0 -- -- 86
2019-03-18 08:00:00 11 3 Noroeste 7 Oeste 0 -- -- 99
2019-03-18 07:00:00 10.5 2 Oeste 8 Oeste 0 -- -- 99
2019-03-18 06:00:00 10.6 3 Norte 10 Norte 0 -- -- 99
2019-03-18 05:00:00 11 3 Nordeste 10 Norte 0 -- -- 100
2019-03-18 04:00:00 11.2 5 Norte 12 Norte 0 -- -- 99
2019-03-18 03:00:00 11.4 5 Nordeste 13 Nordeste 0 -- -- 99
2019-03-18 02:00:00 11.5 5 Nordeste 10 Nordeste 0 -- -- 98
2019-03-18 01:00:00 11.5 6 Norte 12 Norte 0 -- -- 97
2019-03-18 00:00:00 11.5 6 Norte 10 Norte 0 -- -- 98
2019-03-17 23:00:00 11.4 4 Norte 10 Norte 0 -- -- 98
2019-03-17 22:00:00 10.9 4 Noroeste 11 Norte 0 -- -- 96
2019-03-17 21:00:00 11.7 5 Noroeste 13 Oeste 0 -- -- 92
2019-03-17 20:00:00 11.8 7 Norte 13 Noroeste 0 -- -- 94
2019-03-17 19:00:00 12.3 6 Norte 12 Norte 0 -- -- 93
2019-03-17 18:00:00 13.6 7 Norte 15 Norte 0 -- -- 88
2019-03-17 17:00:00 14.9 9 Norte 17 Norte 0 -- -- 84
2019-03-17 16:00:00 15.1 10 Norte 21 Norte 0 -- -- 82
2019-03-17 15:00:00 16.7 12 Nordeste 22 Norte 0 -- -- 70
2019-03-17 14:00:00 17.7 13 Norte 22 Norte 0 -- -- 72
2019-03-17 13:00:00 18 12 Norte 30 Norte 0 -- -- 73
2019-03-17 12:00:00 18.1 13 Norte 22 Noroeste 0 -- -- 71
2019-03-17 11:00:00 18 11 Norte 20 Norte 0 -- -- 69
2019-03-17 10:00:00 16.7 9 Norte 14 Noroeste 0 -- -- 74
2019-03-17 09:00:00 12 5 Noroeste 14 Noroeste 0 -- -- 96
2019-03-17 08:00:00 11.3 6 Noroeste 17 Oeste 0 -- -- 99
2019-03-17 07:00:00 10.9 7 Noroeste 15 Noroeste 0 -- -- 100
2019-03-17 06:00:00 11 6 Noroeste 16 Noroeste 0 -- -- 100
2019-03-17 05:00:00 10.9 9 Noroeste 20 Noroeste 0 -- -- 100
2019-03-17 04:00:00 10.5 10 Noroeste 21 Noroeste 0 -- -- 100
2019-03-17 03:00:00 8.2 2 Este 9 Sur 0 -- -- 100
2019-03-17 02:00:00 9 4 Sudeste 15 Noroeste 0 -- -- 100
2019-03-17 01:00:00 9.6 5 Oeste 12 Oeste 0 -- -- 100
2019-03-17 00:00:00 7.3 3 Noroeste 8 Noroeste 0 -- -- 100
2019-03-16 23:00:00 7.7 3 Noroeste 8 Noroeste 0 -- -- 99
2019-03-16 22:00:00 7.5 5 Sudoeste 8 Sudoeste 0 -- -- 96
2019-03-16 21:00:00 9.4 3 Nordeste 7 Este 0 -- -- 94
2019-03-16 20:00:00 9.7 3 Noroeste 6 Sudoeste 0 -- -- 83
2019-03-16 19:00:00 10.9 2 Sudoeste 10 Sudoeste 0 -- -- 77
2019-03-16 18:00:00 18.5 2 Sur 12 Este 0 -- -- 73
2019-03-16 17:00:00 19.5 7 Este 15 Este 0 -- -- 74
2019-03-16 16:00:00 21.1 5 Nordeste 13 Este 0 -- -- 69
2019-03-16 15:00:00 23.1 5 Nordeste 12 Nordeste 0 -- -- 52
2019-03-16 14:00:00 23.3 6 Norte 17 Este 0 -- -- 40
2019-03-16 13:00:00 24.4 0 Calma 19 Sudeste 0 -- -- 39
2019-03-16 12:00:00 24.9 9 Este 15 Este 0 -- -- 32
2019-03-16 11:00:00 23.3 6 Este 14 Este 0 -- -- 58
2019-03-16 10:00:00 25.8 7 Este 13 Este 0 -- -- 22
2019-03-16 09:00:00 24.9 5 Sudeste 9 Este 0 -- -- 26
2019-03-16 08:00:00 17.1 5 Sudoeste 10 Sudoeste 0 -- -- 30
2019-03-16 07:00:00 11.2 6 Sudoeste 12 Sudoeste 0 -- -- 41
2019-03-16 06:00:00 10.6 7 Sudoeste 12 Oeste 0 -- -- 43
2019-03-16 05:00:00 9 5 Noroeste 10 Norte 0 -- -- 63
2019-03-16 04:00:00 9.2 5 Oeste 10 Oeste 0 -- -- 46
2019-03-16 03:00:00 9.2 6 Oeste 10 Oeste 0 -- -- 47
2019-03-16 02:00:00 9.4 7 Oeste 8 Oeste 0 -- -- 58
2019-03-16 01:00:00 10.6 5 Sudoeste 8 Oeste 0 -- -- 58
2019-03-16 00:00:00 11 3 Noroeste 9 Sudoeste 0 -- -- 58
2019-03-15 23:00:00 11.7 6 Oeste 10 Sudoeste 0 -- -- 57
2019-03-15 22:00:00 10.8 5 Sudoeste 10 Sudoeste 0 -- -- 65
2019-03-15 21:00:00 12.1 3 Oeste 9 Oeste 0 -- -- 64
2019-03-15 20:00:00 12.7 3 Oeste 10 Oeste 0 -- -- 73
2019-03-15 19:00:00 15.4 4 Sudoeste 9 Sudoeste 0 -- -- 73
2019-03-15 18:00:00 19.4 4 Noroeste 8 Norte 0 -- -- 58
2019-03-15 17:00:00 23.1 3 Nordeste 11 Este 0 -- -- 56
2019-03-15 16:00:00 23.5 4 Este 14 Este 0 -- -- 47
2019-03-15 15:00:00 24.1 9 Nordeste 21 Nordeste 0 -- -- 48
2019-03-15 14:00:00 24.8 8 Este 19 Nordeste 0 -- -- 34
2019-03-15 13:00:00 23.6 2 Este 19 Nordeste 0 -- -- 38
2019-03-15 12:00:00 23.8 8 Este 17 Este 0 -- -- 31
2019-03-15 11:00:00 24.1 10 Sudeste 19 Este 0 -- -- 32
2019-03-15 10:00:00 23.6 8 Este 13 Sudeste 0 -- -- 42
2019-03-15 09:00:00 22.6 6 Sudeste 12 Sudeste 0 -- -- 30
2019-03-15 08:00:00 16.9 6 Sudoeste 11 Sudoeste 0 -- -- 35
2019-03-15 07:00:00 8.7 4 Sur 8 Sudoeste 0 -- -- 55
2019-03-15 06:00:00 9.2 4 Sudoeste 7 Sur 0 -- -- 59
2019-03-15 05:00:00 9.3 3 Sur 9 Sudoeste 0 -- -- 56
2019-03-15 04:00:00 7.4 5 Sudoeste 8 Sudoeste 0 -- -- 71
2019-03-15 03:00:00 8.4 3 Sudoeste 8 Sudoeste 0 -- -- 74
2019-03-15 02:00:00 8.1 3 Noroeste 6 Noroeste 0 -- -- 100
2019-03-15 01:00:00 9.2 4 Oeste 8 Oeste 0 -- -- 99
2019-03-15 00:00:00 10.1 4 Noroeste 7 Norte 0 -- -- 93
2019-03-14 23:00:00 10.5 4 Sudoeste 7 Sur 0 -- -- 57
2019-03-14 22:00:00 11.6 5 Sudoeste 9 Sudoeste 0 -- -- 54
2019-03-14 21:00:00 10.8 6 Sudoeste 8 Sudoeste 0 -- -- 84
2019-03-14 20:00:00 11.5 3 Sur 6 Oeste 0 -- -- 87
2019-03-14 19:00:00 12.8 0 Calma 5 Este 0 -- -- 93
2019-03-14 18:00:00 18.1 0 Calma 10 Nordeste 0 -- -- 74
2019-03-14 17:00:00 17.6 5 Nordeste 12 Nordeste 0 -- -- 76
2019-03-14 16:00:00 18.8 4 Este 12 Este 0 -- -- 72
2019-03-14 15:00:00 18.3 0 Calma 16 Este 0 -- -- 74
2019-03-14 14:00:00 17.1 0 Calma 17 Nordeste 0 -- -- 80
2019-03-14 13:00:00 17.2 5 Nordeste 14 Este 0 -- -- 81
2019-03-14 12:00:00 15.4 7 Nordeste 16 Nordeste 0 -- -- 87
2019-03-14 11:00:00 14.9 6 Sudeste 13 Este 0 -- -- 89
2019-03-14 10:00:00 13.3 6 Este 10 Nordeste 0 -- -- 94
2019-03-14 09:00:00 12.8 4 Nordeste 10 Nordeste 0 -- -- 99
2019-03-14 08:00:00 11.7 3 Sudoeste 9 Nordeste 0 -- -- 100
2019-03-14 07:00:00 11.6 3 Este 9 Este 0 -- -- 100
2019-03-14 06:00:00 11.5 3 Este 9 Nordeste 0 -- -- 100
2019-03-14 05:00:00 11.6 3 Oeste 9 Norte 0 -- -- 100
2019-03-14 04:00:00 11.8 3 Nordeste 9 Norte 0 -- -- 100
2019-03-14 03:00:00 11.5 4 Norte 11 Norte 0 -- -- 100
2019-03-14 02:00:00 11.6 4 Noroeste 9 Nordeste 0 -- -- 100
2019-03-14 01:00:00 11.9 5 Norte 11 Norte 0 -- -- 100
2019-03-14 00:00:00 12.1 3 Noroeste 9 Noroeste 0 -- -- 100
2019-03-13 23:00:00 12.2 6 Norte 11 Nordeste 0 -- -- 99
2019-03-13 22:00:00 12.3 5 Norte 9 Norte 0 -- -- 99
2019-03-13 21:00:00 12.4 5 Noroeste 10 Noroeste 0 -- -- 98
2019-03-13 20:00:00 12.1 7 Noroeste 13 Noroeste 0 -- -- 97
2019-03-13 19:00:00 12.6 5 Norte 15 Noroeste 0 -- -- 96
2019-03-13 18:00:00 13.4 7 Norte 16 Norte 0 -- -- 91
2019-03-13 17:00:00 16.5 8 Norte 19 Norte 0 -- -- 78
2019-03-13 16:00:00 16.5 11 Norte 22 Norte 0 -- -- 76
2019-03-13 15:00:00 17.5 11 Norte 22 Norte 0 -- -- 74
2019-03-13 14:00:00 17.2 10 Norte 20 Norte 0 -- -- 75
2019-03-13 13:00:00 17.3 8 Norte 19 Norte 0 -- -- 75
2019-03-13 12:00:00 16.3 8 Norte 20 Nordeste 0 -- -- 77
2019-03-13 11:00:00 15.2 8 Norte 18 Noroeste 0 -- -- 84
2019-03-13 10:00:00 12.9 6 Noroeste 16 Norte 0 -- -- 91
2019-03-13 09:00:00 11.5 7 Noroeste 16 Norte 0 -- -- 97
2019-03-13 08:00:00 11 5 Noroeste 13 Norte 0 -- -- 99
2019-03-13 07:00:00 10.5 5 Noroeste 11 Noroeste 0 -- -- 99
2019-03-13 06:00:00 10.7 4 Norte 15 Noroeste 0 -- -- 99
2019-03-13 05:00:00 10.7 5 Noroeste 17 Noroeste 0 -- -- 99
2019-03-13 04:00:00 9.5 7 Noroeste 14 Noroeste 0 -- -- 100
2019-03-13 03:00:00 10.6 9 Noroeste 18 Noroeste 0 -- -- 99
2019-03-13 02:00:00 9.9 7 Noroeste 18 Noroeste 0 -- -- 100
2019-03-13 01:00:00 9.8 7 Noroeste 13 Noroeste 0 -- -- 99
2019-03-13 00:00:00 11 5 Noroeste 10 Noroeste 0 -- -- 99
2019-03-12 23:00:00 11.2 4 Norte 11 Norte 0 -- -- 98
2019-03-12 22:00:00 11.5 4 Norte 12 Noroeste 0 -- -- 97
2019-03-12 21:00:00 11.4 4 Nordeste 12 Norte 0 -- -- 96
2019-03-12 20:00:00 11.4 4 Noroeste 10 Noroeste 0 -- -- 96
2019-03-12 19:00:00 12.3 3 Nordeste 10 Norte 0 -- -- 94
2019-03-12 18:00:00 15.1 6 Norte 11 Norte 0 -- -- 82
2019-03-12 17:00:00 17.2 3 Nordeste 14 Nordeste 0 -- -- 78
2019-03-12 16:00:00 18.1 9 Nordeste 14 Nordeste 0 -- -- 76
2019-03-12 15:00:00 18.4 6 Nordeste 15 Este 0 -- -- 75
2019-03-12 14:00:00 19 5 Nordeste 15 Este 0 -- -- 74
2019-03-12 13:00:00 19.9 7 Nordeste 14 Nordeste 0 -- -- 70
2019-03-12 12:00:00 19.6 8 Nordeste 13 Nordeste 0 -- -- 72
2019-03-12 11:00:00 20.2 7 Nordeste 13 Nordeste 0 -- -- 67
2019-03-12 10:00:00 21.4 5 Este 10 Nordeste 0 -- -- 58
2019-03-12 09:00:00 21.2 2 Este 5 Este 0 -- -- 37
2019-03-12 08:00:00 14.6 0 Calma 9 Sur 0 -- -- 37
2019-03-12 07:00:00 9.4 4 Sudoeste 9 Sur 0 -- -- 43
2019-03-12 06:00:00 10.3 5 Sudoeste 10 Sudoeste 0 -- -- 42
2019-03-12 05:00:00 12.5 8 Sudoeste 12 Sur 0 -- -- 32
2019-03-12 04:00:00 10.3 5 Sudoeste 10 Sudoeste 0 -- -- 49
2019-03-12 03:00:00 10.3 5 Sudoeste 11 Sudoeste 0 -- -- 50
2019-03-12 02:00:00 10 4 Sudoeste 9 Sudoeste 0 -- -- 55
2019-03-12 01:00:00 10.3 6 Oeste 10 Oeste 0 -- -- 60
2019-03-12 00:00:00 10.1 8 Oeste 10 Oeste 0 -- -- 62
2019-03-11 23:00:00 10.6 2 Oeste 10 Oeste 0 -- -- 53
2019-03-11 22:00:00 10.5 6 Oeste 11 Oeste 0 -- -- 51
2019-03-11 21:00:00 11.2 5 Oeste 10 Noroeste 0 -- -- 47
2019-03-11 20:00:00 11.2 5 Oeste 9 Oeste 0 -- -- 49
2019-03-11 19:00:00 11.3 5 Oeste 8 Oeste 0 -- -- 59
2019-03-11 18:00:00 16.5 2 Noroeste 7 Este 0 -- -- 65
2019-03-11 17:00:00 19.7 3 Nordeste 10 Este 0 -- -- 74
2019-03-11 16:00:00 19.8 5 Nordeste 13 Nordeste 0 -- -- 75
2019-03-11 15:00:00 19.5 8 Nordeste 16 Este 0 -- -- 75
2019-03-11 14:00:00 20.8 7 Nordeste 15 Nordeste 0 -- -- 71
2019-03-11 13:00:00 21.4 2 Este 12 Este 0 -- -- 68
2019-03-11 12:00:00 20.5 6 Nordeste 12 Nordeste 0 -- -- 67
2019-03-11 11:00:00 21.4 4 Este -- -- -- -- -- 65
2019-03-11 10:00:00 21 4 Este 10 Este 0 -- -- 63
2019-03-11 09:00:00 23.1 3 Sur 12 Sudoeste 0 -- -- 24
2019-03-11 08:00:00 16 6 Sudoeste 12 Sur 0 -- -- 35
2019-03-11 07:00:00 10.6 4 Sudoeste 10 Sur 0 -- -- 56
2019-03-11 06:00:00 13.4 6 Sudoeste 13 Sur 0 -- -- 41
2019-03-11 05:00:00 11.5 5 Sudoeste 12 Sur 0 -- -- 55
2019-03-11 04:00:00 13.3 8 Sudoeste 15 Sur 0 -- -- 49
2019-03-11 03:00:00 14.2 7 Sudoeste 12 Sur 0 -- -- 48
2019-03-11 02:00:00 12.6 6 Sur 12 Sudeste 0 -- -- 58
2019-03-11 01:00:00 11.4 4 Sudoeste 9 Sur 0 -- -- 67
2019-03-11 00:00:00 11.5 4 Sudoeste 11 Sudoeste 0 -- -- 64
2019-03-10 23:00:00 10.7 3 Noroeste 12 Oeste 0 -- -- 65
2019-03-10 22:00:00 9.8 5 Oeste 13 Sudoeste 0 -- -- 63
2019-03-10 21:00:00 11.5 10 Sudoeste 13 Sudoeste 0 -- -- 57
2019-03-10 20:00:00 10.6 2 Noroeste 9 Oeste 0 -- -- 76
2019-03-10 19:00:00 11.6 6 Oeste 9 Oeste 0 -- -- 65
2019-03-10 18:00:00 17.8 0 Calma 6 Norte 0 -- -- 72
2019-03-10 17:00:00 21.7 4 Nordeste 10 Nordeste 0 -- -- 69
2019-03-10 16:00:00 22.2 6 Nordeste 12 Nordeste 0 -- -- 68
2019-03-10 15:00:00 21.7 6 Nordeste 14 Nordeste 0 -- -- 67
2019-03-10 14:00:00 22.1 8 Este 15 Este 0 -- -- 65
2019-03-10 13:00:00 20.8 8 Este 14 Este 0 -- -- 70
2019-03-10 12:00:00 21.6 8 Este 14 Este 0 -- -- 60
2019-03-10 11:00:00 20.9 5 Este 15 Sudeste 0 -- -- 62
2019-03-10 10:00:00 18.3 5 Este 13 Sudeste 0 -- -- 65
2019-03-10 09:00:00 14.9 5 Sudeste 13 Nordeste 0 -- -- 98
2019-03-10 08:00:00 11.8 4 Norte 9 Norte 0 -- -- 100
2019-03-10 07:00:00 11.3 3 Sudeste 8 Nordeste 0 -- -- 100
2019-03-10 06:00:00 10.9 0 Calma 6 Sur 0 -- -- 100
2019-03-10 05:00:00 10.9 3 Sudeste 9 Este 0 -- -- 100
2019-03-10 04:00:00 11.1 3 Este 12 Sudeste 0 -- -- 100
2019-03-10 03:00:00 11.1 5 Sudeste 13 Sudeste 0 -- -- 100
2019-03-10 02:00:00 11.4 8 Nordeste 16 Nordeste 0 -- -- 100
2019-03-10 01:00:00 11.5 9 Nordeste 20 Nordeste 0 -- -- 100
2019-03-10 00:00:00 11.3 7 Nordeste 22 Nordeste 0 -- -- 100
2019-03-09 23:00:00 11.5 6 Nordeste 21 Norte 0 -- -- 100
2019-03-09 22:00:00 11.4 6 Norte 22 Norte 0 -- -- 100
2019-03-09 21:00:00 11.7 10 Norte 24 Norte 0 -- -- 100
2019-03-09 20:00:00 11.6 7 Norte 21 Norte 0 -- -- 100
2019-03-09 19:00:00 11.8 9 Norte 24 Norte 0 -- -- 98
2019-03-09 18:00:00 12.4 11 Nordeste 26 Norte 0 -- -- 96
2019-03-09 17:00:00 13.7 13 Norte 24 Norte 0 -- -- 90
2019-03-09 16:00:00 14.2 13 Nordeste 23 Nordeste 0 -- -- 90
2019-03-09 15:00:00 13.3 14 Norte 26 Norte 0 -- -- 90
2019-03-09 14:00:00 13 10 Norte 26 Norte 0 -- -- 92
2019-03-09 13:00:00 13.3 7 Nordeste 25 Nordeste 0 -- -- 89
2019-03-09 12:00:00 14.7 6 Nordeste 21 Nordeste 0 -- -- 83
2019-03-09 11:00:00 14.6 9 Norte 20 Norte 0 -- -- 86
2019-03-09 10:00:00 13.5 10 Norte 21 Noroeste 0 -- -- 89
2019-03-09 09:00:00 13 8 Noroeste 20 Norte 0 -- -- 91
2019-03-09 08:00:00 10.5 9 Noroeste 28 Norte 0 -- -- 100
2019-03-09 07:00:00 10.4 10 Noroeste 28 Norte 0 -- -- 100
2019-03-09 06:00:00 10.2 10 Norte 29 Norte 0.2 -- -- 100
2019-03-09 05:00:00 10.5 9 Norte 25 Norte 0 -- -- 98
2019-03-09 04:00:00 10.1 9 Norte 24 Nordeste 0 -- -- 98
2019-03-09 03:00:00 10.4 14 Norte 30 Norte 0.2 -- -- 98
2019-03-09 02:00:00 10.8 13 Norte 26 Norte 0 -- -- 99
2019-03-09 01:00:00 10.8 13 Norte 23 Norte 0 -- -- 97
2019-03-09 00:00:00 10.7 10 Norte 23 Norte 0 -- -- 96
2019-03-08 23:00:00 10.7 8 Norte 25 Nordeste 0 -- -- 96
2019-03-08 22:00:00 10.4 8 Noroeste 19 Noroeste 0 -- -- 95
2019-03-08 21:00:00 10.3 8 Norte 21 Norte 0 -- -- 97
2019-03-08 20:00:00 10.6 8 Norte 20 Norte 0.2 -- -- 98
2019-03-08 19:00:00 10.9 11 Norte 23 Norte 0 -- -- 96
2019-03-08 18:00:00 11.7 10 Norte 24 Noroeste 0 -- -- 91
2019-03-08 17:00:00 12.4 11 Norte 25 Norte 0 -- -- 87
2019-03-08 16:00:00 12.7 9 Norte 32 Norte 0 -- -- 88
2019-03-08 15:00:00 13.2 12 Norte 29 Norte 0 -- -- 89
2019-03-08 14:00:00 13.6 10 Norte 29 Norte 0 -- -- 91
2019-03-08 13:00:00 14.1 13 Norte 32 Norte 0 -- -- 94
2019-03-08 12:00:00 13.5 17 Norte 35 Norte 0 -- -- 100
2019-03-08 11:00:00 13.4 18 Norte 40 Noroeste 0 -- -- 100
2019-03-08 10:00:00 12.9 21 Norte 45 Noroeste 0.2 -- -- 100
2019-03-08 09:00:00 13 19 Norte 40 Norte 2.4 -- -- 100
2019-03-08 08:00:00 12.4 17 Noroeste 32 Noroeste 0 -- -- 100
2019-03-08 07:00:00 12.2 13 Noroeste 44 Noroeste 0 -- -- 100
2019-03-08 06:00:00 11.7 17 Noroeste 35 Noroeste 0.2 -- -- 100
2019-03-08 05:00:00 11.3 15 Noroeste 41 Noroeste 0 -- -- 100
2019-03-08 04:00:00 11 17 Oeste 40 Oeste 0 -- -- 100
2019-03-08 03:00:00 10.9 15 Noroeste 37 Oeste 0.2 -- -- 100
2019-03-08 02:00:00 10.9 13 Noroeste 32 Oeste 0 -- -- 100
2019-03-08 01:00:00 10.7 13 Noroeste 27 Noroeste 0.4 -- -- 100
2019-03-08 00:00:00 11 9 Noroeste 24 Noroeste 0 -- -- 100
2019-03-07 23:00:00 10.9 12 Noroeste 22 Oeste 0 -- -- 99
2019-03-07 22:00:00 10.4 8 Oeste 19 Noroeste 0.4 -- -- 100
2019-03-07 21:00:00 10.4 8 Noroeste 21 Noroeste 0.2 -- -- 100
2019-03-07 20:00:00 10.8 10 Norte 22 Norte 0.2 -- -- 99
2019-03-07 19:00:00 10.8 8 Oeste 22 Noroeste 0 -- -- 94
2019-03-07 18:00:00 11.6 8 Noroeste 22 Noroeste 0 -- -- 91
2019-03-07 17:00:00 11.7 13 Norte 29 Norte 0 -- -- 96
2019-03-07 16:00:00 11.3 13 Noroeste 27 Noroeste 0.2 -- -- 96
2019-03-07 15:00:00 13.9 13 Norte 27 Noroeste 0 -- -- 78
2019-03-07 14:00:00 12.6 11 Norte 31 Noroeste 0 -- -- 87
2019-03-07 13:00:00 14.8 7 Norte 27 Norte 0 -- -- 77
2019-03-07 12:00:00 14.6 15 Norte 30 Norte 0 -- -- 75
2019-03-07 11:00:00 13.9 15 Norte 26 Noroeste 0 -- -- 81
2019-03-07 10:00:00 13.7 12 Norte 30 Norte 0.2 -- -- 84
2019-03-07 09:00:00 11.7 9 Norte 20 Norte 0 -- -- 95
2019-03-07 08:00:00 10.5 8 Noroeste 24 Norte 0 -- -- 100
2019-03-07 07:00:00 10.4 9 Norte 23 Norte 0 -- -- 100
2019-03-07 06:00:00 10.3 10 Norte 29 Norte 0 -- -- 100
2019-03-07 05:00:00 10.7 13 Norte 29 Norte 0 -- -- 100
2019-03-07 04:00:00 10.9 10 Noroeste 20 Norte 0 -- -- 100
2019-03-07 03:00:00 10.5 9 Noroeste 16 Noroeste 0 -- -- 100
2019-03-07 02:00:00 10.7 9 Norte 22 Norte 0 -- -- 100
2019-03-07 01:00:00 10.8 9 Noroeste 21 Norte 0.2 -- -- 100
2019-03-07 00:00:00 10.9 12 Norte 24 Norte 0.2 -- -- 100
2019-03-06 23:00:00 11.2 8 Noroeste 21 Norte 0 -- -- 99
2019-03-06 22:00:00 11.5 8 Norte 20 Norte 0 -- -- 97
2019-03-06 21:00:00 11.4 11 Norte 20 Norte 0 -- -- 95
2019-03-06 20:00:00 11.5 11 Norte 30 Norte 0 -- -- 94
2019-03-06 19:00:00 11.7 11 Norte 26 Norte 0 -- -- 97
2019-03-06 18:00:00 12.3 10 Norte 28 Norte 0 -- -- 96
2019-03-06 17:00:00 12.4 12 Norte 32 Norte 0.2 -- -- 96
2019-03-06 16:00:00 13.8 15 Noroeste 30 Norte 0 -- -- 84
2019-03-06 15:00:00 14 3 Norte 25 Norte 0.4 -- -- 87
2019-03-06 14:00:00 15.9 11 Norte 25 Noroeste 0 -- -- 76
2019-03-06 13:00:00 17.5 0 Calma 29 Oeste 0 -- -- 70
2019-03-06 12:00:00 16.5 12 Noroeste 23 Oeste 0 -- -- 73
2019-03-06 11:00:00 16.3 9 Noroeste 28 Noroeste 0 -- -- 76
2019-03-06 10:00:00 16.1 13 Noroeste 32 Noroeste 0 -- -- 78
2019-03-06 09:00:00 15 3 Nordeste 26 Sudoeste 0 -- -- 86
2019-03-06 08:00:00 12.4 6 Sudeste 30 Sudoeste 0.2 -- -- 93
2019-03-06 07:00:00 11.2 12 Oeste 21 Oeste 0.6 -- -- 94
2019-03-06 06:00:00 12.2 8 Noroeste 16 Oeste 0 -- -- 83
2019-03-06 05:00:00 13.2 6 Sudoeste 23 Oeste 0 -- -- 70
2019-03-06 04:00:00 12.5 8 Oeste 20 Sudoeste 0 -- -- 69
2019-03-06 03:00:00 11.4 9 Oeste 22 Oeste 0 -- -- 71
2019-03-06 02:00:00 11.8 10 Oeste 23 Norte 0 -- -- 76
2019-03-06 01:00:00 11.1 10 Sudoeste 37 Noroeste 0 -- -- 80
2019-03-06 00:00:00 11.6 15 Noroeste 29 Oeste 0 -- -- 92
2019-03-05 23:00:00 11.2 9 Noroeste 17 Noroeste 0 -- -- 91
2019-03-05 22:00:00 11.3 2 Sudoeste 12 Sudeste 0 -- -- 94
2019-03-05 21:00:00 11.9 2 Sudoeste 9 Nordeste 0 -- -- 94
2019-03-05 20:00:00 12.1 4 Nordeste 10 Norte 0 -- -- 94
2019-03-05 19:00:00 11.9 6 Noroeste 9 Norte 0 -- -- 92
2019-03-05 18:00:00 14.9 5 Nordeste 9 Este 0 -- -- 80
2019-03-05 17:00:00 15.2 6 Nordeste 16 Nordeste 0 -- -- 77
2019-03-05 16:00:00 16.8 0 Calma 14 Nordeste 0 -- -- 71
2019-03-05 15:00:00 17.8 6 Nordeste 12 Nordeste 0 -- -- 70
2019-03-05 14:00:00 16.5 8 Norte 20 Nordeste 0 -- -- 74
2019-03-05 13:00:00 16.4 3 Nordeste 19 Norte 0 -- -- 73
2019-03-05 12:00:00 18 6 Sudeste 16 Sudeste 0 -- -- 65
2019-03-05 11:00:00 17.1 8 Este 15 Este 0 -- -- 68
2019-03-05 10:00:00 15.5 8 Nordeste 15 Nordeste 0 -- -- 75
2019-03-05 09:00:00 12 3 Sur 10 Oeste 0 -- -- 84
2019-03-05 08:00:00 10 5 Sudoeste 9 Sur 0 -- -- 94
2019-03-05 07:00:00 10.2 5 Sur 11 Sudeste 0 -- -- 93
2019-03-05 06:00:00 10.3 4 Sur 14 Este 0 -- -- 92
2019-03-05 05:00:00 10.6 4 Este 13 Sur 0 -- -- 93
2019-03-05 04:00:00 10.4 5 Sudeste 12 Este 0 -- -- 93
2019-03-05 03:00:00 10.4 0 Calma 8 Sur 0 -- -- 94
2019-03-05 02:00:00 10.3 4 Este 9 Nordeste 0 -- -- 93
2019-03-05 01:00:00 11 3 Sudeste 10 Sudeste 0 -- -- 94
2019-03-05 00:00:00 10.8 4 Este 10 Este 0 -- -- 95
2019-03-04 23:00:00 10.8 3 Este 9 Nordeste 0 -- -- 96
2019-03-04 22:00:00 10 4 Oeste 10 Nordeste 0 -- -- 98
2019-03-04 21:00:00 10.7 0 Calma 9 Nordeste 0 -- -- 98
2019-03-04 20:00:00 10.2 0 Calma 10 Nordeste 0 -- -- 97
2019-03-04 19:00:00 11.8 4 Nordeste 10 Norte 0 -- -- 93
2019-03-04 18:00:00 13.2 4 Norte 13 Nordeste 0 -- -- 81
2019-03-04 17:00:00 16.2 8 Norte 18 Norte 0 -- -- 72
2019-03-04 16:00:00 16.9 8 Nordeste 22 Nordeste 0 -- -- 73
2019-03-04 15:00:00 16.6 10 Nordeste 20 Nordeste 0 -- -- 72
2019-03-04 14:00:00 16.3 10 Este 20 Nordeste 0 -- -- 71
2019-03-04 13:00:00 15.3 6 Nordeste 16 Nordeste 0 -- -- 79
2019-03-04 12:00:00 14.6 7 Nordeste 18 Nordeste 0 -- -- 80
2019-03-04 11:00:00 13.2 4 Noroeste 21 Norte 0 -- -- 82
2019-03-04 10:00:00 14.3 8 Nordeste 16 Nordeste 0 -- -- 78
2019-03-04 09:00:00 12.5 6 Norte 14 Norte 0 -- -- 97
2019-03-04 08:00:00 11.1 4 Nordeste 12 Este 0 -- -- 100
2019-03-04 07:00:00 10.6 0 Calma 10 Nordeste 0 -- -- 100
2019-03-04 06:00:00 10.7 2 Oeste 9 Norte 0 -- -- 99
2019-03-04 05:00:00 11 3 Norte 8 Nordeste 0 -- -- 99
2019-03-04 04:00:00 11 3 Nordeste 7 Sur 0 -- -- 98
2019-03-04 03:00:00 10.7 3 Sudoeste 10 Norte 0 -- -- 97
2019-03-04 02:00:00 10.9 4 Oeste 12 Sudeste 0 -- -- 95
2019-03-04 01:00:00 10.4 3 Sudoeste 10 Sudeste 0 -- -- 97
2019-03-04 00:00:00 10.6 3 Sudoeste 6 Sudoeste 0 -- -- 99
2019-03-03 23:00:00 10.6 4 Norte 18 Nordeste 0 -- -- 99
2019-03-03 22:00:00 11.5 8 Nordeste 14 Norte 0.2 -- -- 99
2019-03-03 21:00:00 11.2 5 Sudoeste 12 Norte 0 -- -- 96
2019-03-03 20:00:00 11.3 2 Norte 13 Norte 0 -- -- 94
2019-03-03 19:00:00 11.5 7 Norte 22 Norte 0 -- -- 95
2019-03-03 18:00:00 12.5 9 Norte 18 Norte 0 -- -- 93
2019-03-03 17:00:00 13.6 11 Norte 19 Norte 0 -- -- 88
2019-03-03 16:00:00 15.5 7 Norte 16 Este 0 -- -- 83
2019-03-03 15:00:00 13.7 9 Nordeste 15 Norte 0 -- -- 89
2019-03-03 14:00:00 12.7 9 Este 18 Nordeste 0 -- -- 95
2019-03-03 13:00:00 14.1 6 Nordeste 14 Nordeste 0 -- -- 93
2019-03-03 12:00:00 14 6 Nordeste 15 Nordeste 0 -- -- 90
2019-03-03 11:00:00 14 9 Este 15 Este 0.2 -- -- 94
2019-03-03 10:00:00 12 4 Oeste 10 Sudoeste 0 -- -- 97
2019-03-03 09:00:00 11.2 2 Sudoeste 13 Sudoeste 0 -- -- 100
2019-03-03 08:00:00 10.8 4 Sudoeste 11 Nordeste 0 -- -- 100
2019-03-03 07:00:00 10.5 5 Sudoeste 19 Este 0.4 -- -- 100
2019-03-03 06:00:00 10.7 3 Sudoeste 10 Norte 0.4 -- -- 100
2019-03-03 05:00:00 10.3 5 Norte 26 Norte 0.2 -- -- 99
2019-03-03 04:00:00 11.2 8 Nordeste 16 Nordeste 0 -- -- 99
2019-03-03 03:00:00 10.1 4 Sudoeste 10 Norte 0 -- -- 99
2019-03-03 02:00:00 10.8 0 Calma 5 Sudoeste 0 -- -- 100
2019-03-03 01:00:00 11.1 4 Nordeste 8 Nordeste 0 -- -- 99
2019-03-03 00:00:00 11 3 Nordeste 8 Sudeste 0 -- -- 98
2019-03-02 23:00:00 10.9 2 Noroeste 7 Norte 0 -- -- 96
2019-03-02 22:00:00 10.9 0 Calma 13 Norte 0 -- -- 96
2019-03-02 21:00:00 10.9 4 Norte 10 Norte 0 -- -- 92
2019-03-02 20:00:00 10.3 5 Oeste 10 Oeste 0 -- -- 93
2019-03-02 19:00:00 9.4 5 Oeste 14 Norte 0 -- -- 88
2019-03-02 18:00:00 11.9 8 Norte 14 Norte 0 -- -- 90
2019-03-02 17:00:00 12 8 Norte 15 Norte 0 -- -- 89
2019-03-02 16:00:00 12.4 6 Nordeste 14 Nordeste 0 -- -- 86
2019-03-02 15:00:00 13.5 9 Nordeste 17 Nordeste 0 -- -- 84
2019-03-02 14:00:00 14.9 10 Este 19 Nordeste 0 -- -- 77
2019-03-02 13:00:00 14.3 8 Nordeste 19 Nordeste 0 -- -- 75
2019-03-02 12:00:00 14.2 10 Nordeste 20 Este 0 -- -- 82
2019-03-02 11:00:00 13.3 6 Este 19 Nordeste 0 -- -- 89
2019-03-02 10:00:00 11.2 10 Nordeste 18 Nordeste 0 -- -- 100
2019-03-02 09:00:00 10.8 2 Noroeste 9 Norte 0.2 -- -- 100
2019-03-02 08:00:00 10.1 5 Norte 14 Nordeste 0 -- -- 100
2019-03-02 07:00:00 10.6 5 Nordeste 13 Nordeste 0.6 -- -- 100
2019-03-02 06:00:00 11.2 8 Nordeste 15 Este 0.2 -- -- 100
2019-03-02 05:00:00 11.2 4 Nordeste 13 Nordeste 0 -- -- 100
2019-03-02 04:00:00 11 4 Nordeste 10 Nordeste 0 -- -- 100
2019-03-02 03:00:00 11 5 Nordeste 15 Este 0 -- -- 100
2019-03-02 02:00:00 10.5 2 Norte 7 Oeste 0 -- -- 99
2019-03-02 01:00:00 10 6 Oeste 13 Norte 0 -- -- 99
2019-03-02 00:00:00 10.3 4 Noroeste 10 Noroeste 0 -- -- 100
2019-03-01 23:00:00 11.2 3 Norte 15 Nordeste 0.2 -- -- 100
2019-03-01 22:00:00 11.4 7 Norte 14 Norte 0 -- -- 100
2019-03-01 21:00:00 11.3 10 Norte 18 Norte 0.2 -- -- 100
2019-03-01 20:00:00 11.5 6 Norte 18 Norte 0 -- -- 100
2019-03-01 19:00:00 11.4 5 Norte 15 Nordeste 0.2 -- -- 100
2019-03-01 18:00:00 11.8 7 Nordeste 15 Norte 0 -- -- 99
2019-03-01 17:00:00 12.8 7 Norte 15 Nordeste 0 -- -- 92
2019-03-01 16:00:00 13.5 8 Nordeste 17 Nordeste 0 -- -- 85
2019-03-01 15:00:00 15.2 7 Nordeste 23 Nordeste 0 -- -- 71
2019-03-01 14:00:00 16.3 6 Nordeste 19 Norte 0 -- -- 64
2019-03-01 13:00:00 15.4 11 Norte 22 Nordeste 0 -- -- 68
2019-03-01 12:00:00 15.3 5 Norte 19 Norte 0 -- -- 68
2019-03-01 11:00:00 14.2 7 Nordeste 16 Nordeste 0 -- -- 75
2019-03-01 10:00:00 13.1 4 Nordeste 11 Sudeste 0 -- -- 84
2019-03-01 09:00:00 11.7 3 Sudoeste 5 Sudoeste 0 -- -- 99
2019-03-01 08:00:00 9.4 2 Oeste 6 Oeste 0 -- -- 100
2019-03-01 07:00:00 7.3 6 Oeste 9 Oeste 0 -- -- 100
2019-03-01 06:00:00 10.2 4 Noroeste 9 Noroeste 0 -- -- 99
2019-03-01 05:00:00 10.3 4 Noroeste 13 Norte 0 -- -- 100
2019-03-01 04:00:00 10 5 Noroeste 9 Oeste 0 -- -- 100
2019-03-01 03:00:00 9.3 6 Oeste 11 Norte 0 -- -- 100
2019-03-01 02:00:00 9.4 3 Sudoeste 5 Oeste 0 -- -- 100
2019-03-01 01:00:00 9.1 3 Oeste 6 Oeste 0 -- -- 100
2019-03-01 00:00:00 9.9 0 Calma 7 Oeste 0 -- -- 100
2019-02-28 23:00:00 8.6 5 Oeste 10 Noroeste 0 -- -- 100
2019-02-28 22:00:00 7.3 5 Noroeste 10 Noroeste 0 -- -- 100
2019-02-28 21:00:00 7.7 3 Oeste 8 Oeste 0 -- -- 100
2019-02-28 20:00:00 7.5 6 Oeste 10 Oeste 0 -- -- 98
2019-02-28 19:00:00 9.2 6 Oeste 8 Oeste 0 -- -- 93
2019-02-28 18:00:00 12.2 3 Noroeste 12 Nordeste 0 -- -- 86
2019-02-28 17:00:00 15.2 0 Calma 8 Norte 0 -- -- 79
2019-02-28 16:00:00 14.6 0 Calma 15 Nordeste 0 -- -- 80
2019-02-28 15:00:00 14 0 Calma 15 Norte 0 -- -- 83
2019-02-28 14:00:00 14.3 7 Nordeste 20 Este 0 -- -- 85
2019-02-28 13:00:00 14.7 4 Nordeste 20 Nordeste 0 -- -- 83
2019-02-28 12:00:00 14.8 7 Nordeste 14 Nordeste 0 -- -- 83
2019-02-28 11:00:00 13.1 0 Calma 13 Este 0 -- -- 91
2019-02-28 10:00:00 12.8 4 Este 9 Nordeste 0 -- -- 94
2019-02-28 09:00:00 12.5 2 Este 11 Nordeste 0 -- -- 95
2019-02-28 08:00:00 11.1 3 Nordeste 14 Norte 0 -- -- 97
2019-02-28 07:00:00 10.6 3 Sudeste 10 Sudeste 0 -- -- 96
2019-02-28 06:00:00 9.3 5 Sur 9 Sur 0 -- -- 99
2019-02-28 05:00:00 9.3 5 Sur 12 Sudeste 0 -- -- 98
2019-02-28 04:00:00 8.7 5 Sur 9 Sudoeste 0 -- -- 98
2019-02-28 03:00:00 8.9 6 Sur 8 Sur 0 -- -- 98
2019-02-28 02:00:00 8.4 4 Sur 12 Sudoeste 0 -- -- 95
2019-02-28 01:00:00 9.2 6 Sudoeste 10 Sudoeste 0 -- -- 98
2019-02-28 00:00:00 9 6 Sudoeste 10 Sudoeste 0 -- -- 96
2019-02-27 23:00:00 7.5 4 Sudoeste 12 Oeste 0 -- -- 93
2019-02-27 22:00:00 7.6 4 Noroeste 8 Oeste 0 -- -- 58
2019-02-27 21:00:00 6.5 5 Sudoeste 14 Sudoeste 0 -- -- 76
2019-02-27 20:00:00 9.2 2 Oeste 8 Oeste 0 -- -- 94
2019-02-27 19:00:00 10.7 3 Oeste 6 Noroeste 0 -- -- 92
2019-02-27 18:00:00 15.3 3 Oeste 10 Nordeste 0 -- -- 70
2019-02-27 17:00:00 18.2 6 Nordeste 13 Nordeste 0 -- -- 73
2019-02-27 16:00:00 18.1 5 Nordeste 14 Este 0 -- -- 73
2019-02-27 15:00:00 18.5 5 Nordeste 14 Nordeste 0 -- -- 73
2019-02-27 14:00:00 18.8 8 Nordeste 15 Nordeste 0 -- -- 74
2019-02-27 13:00:00 18.6 8 Nordeste 16 Este 0 -- -- 72
2019-02-27 12:00:00 19.3 5 Nordeste 18 Nordeste 0 -- -- 68
2019-02-27 11:00:00 21.4 6 Este 11 Este 0 -- -- 56
2019-02-27 10:00:00 20 7 Nordeste 12 Nordeste 0 -- -- 58
2019-02-27 09:00:00 20.5 5 Sudeste 8 Sudeste 0 -- -- 23
2019-02-27 08:00:00 10.3 2 Oeste 8 Sur 0 -- -- 45
2019-02-27 07:00:00 8.4 5 Sudoeste 9 Oeste 0 -- -- 49
2019-02-27 06:00:00 9.1 9 Oeste 12 Oeste 0 -- -- 44
2019-02-27 05:00:00 8.6 4 Sudoeste 10 Oeste 0 -- -- 45
2019-02-27 04:00:00 9.9 9 Oeste 12 Oeste 0 -- -- 37
2019-02-27 03:00:00 10.5 8 Oeste 16 Noroeste 0 -- -- 31
2019-02-27 02:00:00 12.5 8 Oeste 15 Oeste 0 -- -- 24
2019-02-27 01:00:00 11.6 3 Sudoeste 7 Norte 0 -- -- 30
2019-02-27 00:00:00 10.5 2 Noroeste 10 Oeste 0 -- -- 46
2019-02-26 23:00:00 10.2 6 Oeste 9 Noroeste 0 -- -- 64
2019-02-26 22:00:00 9.9 4 Oeste 14 Oeste 0 -- -- 62
2019-02-26 21:00:00 11.3 9 Oeste 21 Oeste 0 -- -- 34
2019-02-26 20:00:00 16.2 14 Oeste 31 Oeste 0 -- -- 21
2019-02-26 19:00:00 16.2 17 Oeste 26 Oeste 0 -- -- 24
2019-02-26 18:00:00 17.3 10 Noroeste 17 Noroeste 0 -- -- 36
2019-02-26 17:00:00 20.3 7 Noroeste 18 Norte 0 -- -- 50
2019-02-26 16:00:00 20.8 6 Nordeste 14 Norte 0 -- -- 59
2019-02-26 15:00:00 21.8 5 Nordeste 17 Este 0 -- -- 49
2019-02-26 14:00:00 21.3 9 Nordeste 17 Este 0 -- -- 46
2019-02-26 13:00:00 22 9 Nordeste 15 Este 0 -- -- 33
2019-02-26 12:00:00 21.3 7 Nordeste 15 Nordeste 0 -- -- 34
2019-02-26 11:00:00 22.4 6 Este 10 Este 0 -- -- 27
2019-02-26 10:00:00 21.1 3 Este 10 Nordeste 0 -- -- 22
2019-02-26 09:00:00 20.8 2 Norte 21 Noroeste 0 -- -- 21
2019-02-26 08:00:00 14.2 12 Noroeste 21 Oeste 0 -- -- 25
2019-02-26 07:00:00 11.7 7 Oeste 16 Noroeste 0 -- -- 30
2019-02-26 06:00:00 9.7 7 Oeste 9 Oeste 0 -- -- 35
2019-02-26 05:00:00 11.1 10 Oeste 18 Oeste 0 -- -- 30
2019-02-26 04:00:00 11.1 9 Oeste 15 Oeste 0 -- -- 31
2019-02-26 03:00:00 10.3 9 Oeste 13 Oeste 0 -- -- 34
2019-02-26 02:00:00 12 5 Oeste 15 Oeste 0 -- -- 28
2019-02-26 01:00:00 13.3 7 Oeste 13 Oeste 0 -- -- 24
2019-02-26 00:00:00 13.9 8 Oeste 17 Oeste 0 -- -- 22
2019-02-25 23:00:00 16.2 11 Oeste 21 Oeste 0 -- -- 19
2019-02-25 22:00:00 16.8 13 Oeste 26 Oeste 0 -- -- 19
2019-02-25 21:00:00 17.2 14 Oeste 28 Oeste 0 -- -- 19
2019-02-25 20:00:00 17.6 17 Oeste 26 Noroeste 0 -- -- 20
2019-02-25 19:00:00 16.3 15 Oeste 24 Oeste 0 -- -- 33
2019-02-25 18:00:00 18.8 0 Calma 8 Nordeste 0 -- -- 68
2019-02-25 17:00:00 21.5 4 Nordeste 13 Este 0 -- -- 59
2019-02-25 16:00:00 22.5 4 Norte 14 Nordeste 0 -- -- 49
2019-02-25 15:00:00 22.5 7 Nordeste 16 Nordeste 0 -- -- 39
2019-02-25 14:00:00 23.5 7 Este 16 Este 0 -- -- 42
2019-02-25 13:00:00 21.6 9 Nordeste 15 Nordeste 0 -- -- 38
2019-02-25 12:00:00 22 8 Nordeste 14 Este 0 -- -- 44
2019-02-25 11:00:00 23 8 Nordeste 13 Este 0 -- -- 23
2019-02-25 10:00:00 23.6 3 Nordeste 6 Este 0 -- -- 20
2019-02-25 09:00:00 21.7 3 Nordeste 4 Nordeste 0 -- -- 17
2019-02-25 08:00:00 11.3 4 Oeste 10 Oeste 0 -- -- 40
2019-02-25 07:00:00 8.9 4 Oeste 12 Oeste 0 -- -- 42
2019-02-25 06:00:00 9.9 9 Oeste 12 Oeste 0 -- -- 38
2019-02-25 05:00:00 10.1 10 Oeste 12 Oeste 0 -- -- 41
2019-02-25 04:00:00 10.3 10 Oeste 13 Oeste 0 -- -- 42
2019-02-25 03:00:00 10.2 9 Oeste 10 Oeste 0 -- -- 43
2019-02-25 02:00:00 9.7 8 Oeste 9 Oeste 0 -- -- 46
2019-02-25 01:00:00 11.4 4 Noroeste 11 Oeste 0 -- -- 40
2019-02-25 00:00:00 11.2 4 Oeste 11 Oeste 0 -- -- 39
2019-02-24 23:00:00 10.6 5 Sudoeste 9 Sur 0 -- -- 42
2019-02-24 22:00:00 10.1 5 Sudoeste 8 Sudoeste 0 -- -- 48
2019-02-24 21:00:00 10.2 5 Sudoeste 6 Oeste 0 -- -- 50
2019-02-24 20:00:00 10.7 4 Sudoeste 6 Oeste 0 -- -- 52
2019-02-24 19:00:00 12.2 3 Oeste 7 Oeste 0 -- -- 48
2019-02-24 18:00:00 17.6 4 Oeste 10 Sudeste 0 -- -- 37
2019-02-24 17:00:00 24.7 6 Sudeste 16 Sudeste 0 -- -- 19
2019-02-24 16:00:00 24.4 10 Este 21 Sudeste 0 -- -- 22
2019-02-24 15:00:00 24.2 13 Este 26 Sudeste 0 -- -- 25
2019-02-24 14:00:00 24.6 12 Sudeste 26 Sudeste 0 -- -- 24
2019-02-24 13:00:00 24.3 14 Sudeste 25 Sudeste 0 -- -- 26
2019-02-24 12:00:00 24.2 12 Sudeste 27 Este 0 -- -- 25
2019-02-24 11:00:00 23.4 13 Sudeste 25 Sudeste 0 -- -- 23
2019-02-24 10:00:00 22.9 11 Sudeste 27 Sudeste 0 -- -- 26
2019-02-24 09:00:00 20.6 8 Sur 15 Sudeste 0 -- -- 24
2019-02-24 08:00:00 16 7 Sudoeste 15 Sur 0 -- -- 25
2019-02-24 07:00:00 15.4 8 Sudoeste 18 Sur 0 -- -- 26
2019-02-24 06:00:00 15.4 7 Sur 16 Sur 0 -- -- 26
2019-02-24 05:00:00 14.7 6 Sur 13 Sur 0 -- -- 29
2019-02-24 04:00:00 15 7 Sur 12 Sur 0 -- -- 27
2019-02-24 03:00:00 13.9 5 Sudoeste 14 Sur 0 -- -- 29
2019-02-24 02:00:00 14.8 8 Sudoeste 13 Sudoeste 0 -- -- 29
2019-02-24 01:00:00 14.1 5 Sur 13 Sur 0 -- -- 32
2019-02-24 00:00:00 14.5 6 Sudoeste 12 Sur 0 -- -- 29
2019-02-23 23:00:00 13.7 6 Sudoeste 10 Sudoeste 0 -- -- 29
2019-02-23 22:00:00 13 6 Sudoeste 10 Sudoeste 0 -- -- 34
2019-02-23 21:00:00 14.8 7 Sudoeste 10 Sudoeste 0 -- -- 27
2019-02-23 20:00:00 14.8 6 Sudoeste 10 Sudoeste 0 -- -- 31
2019-02-23 19:00:00 13.5 4 Sudoeste 8 Sudoeste 0 -- -- 59
2019-02-23 18:00:00 17.8 3 Oeste 9 Este 0 -- -- 49
2019-02-23 17:00:00 24.1 4 Norte 14 Nordeste 0 -- -- 33
2019-02-23 16:00:00 25.1 9 Nordeste 29 Este 0 -- -- 31
2019-02-23 15:00:00 25.4 14 Sudeste 33 Sudeste 0 -- -- 23
2019-02-23 14:00:00 25.5 14 Sudeste 32 Este 0 -- -- 21
2019-02-23 13:00:00 25.3 16 Sudeste 37 Este 0 -- -- 23
2019-02-23 12:00:00 25.1 15 Sudeste 36 Sudeste 0 -- -- 20
2019-02-23 11:00:00 24.7 16 Sudeste 32 Sudeste 0 -- -- 18
2019-02-23 10:00:00 24.1 12 Sudeste 27 Sudeste 0 -- -- 23
2019-02-23 09:00:00 21.6 12 Sur 23 Sur 0 -- -- 23
2019-02-23 08:00:00 16.9 9 Sudoeste 17 Sudoeste 0 -- -- 27
2019-02-23 07:00:00 16.4 8 Sudoeste 18 Sur 0 -- -- 26
2019-02-23 06:00:00 15.9 8 Sudoeste 17 Sur 0 -- -- 28
2019-02-23 05:00:00 14.5 6 Sur 14 Sur 0 -- -- 29
2019-02-23 04:00:00 15.3 7 Sur 14 Sudoeste 0 -- -- 27
2019-02-23 03:00:00 15.6 9 Sur 15 Sur 0 -- -- 27
2019-02-23 02:00:00 14.4 5 Sur 15 Sur 0 -- -- 29
2019-02-23 01:00:00 16 8 Sudoeste 17 Sudoeste 0 -- -- 25
2019-02-23 00:00:00 15.5 7 Sur 13 Sur 0 -- -- 26
2019-02-22 23:00:00 16 9 Sudoeste 14 Sudoeste 0 -- -- 25
2019-02-22 22:00:00 11.6 5 Oeste 12 Oeste 0 -- -- 45
2019-02-22 21:00:00 11 5 Sudoeste 9 Sudoeste 0 -- -- 54
2019-02-22 20:00:00 11.8 4 Oeste 8 Oeste 0 -- -- 52
2019-02-22 19:00:00 12.3 4 Sudoeste 10 Oeste 0 -- -- 58
2019-02-22 18:00:00 18.7 8 Oeste 13 Noroeste 0 -- -- 40
2019-02-22 17:00:00 22.5 0 Calma 22 Sudeste 0 -- -- 27
2019-02-22 16:00:00 25.2 9 Sudeste 26 Sudeste 0 -- -- 25
2019-02-22 15:00:00 24.3 14 Sudeste 35 Este 0 -- -- 24
2019-02-22 14:00:00 24.2 14 Sudeste 38 Sudeste 0 -- -- 25
2019-02-22 13:00:00 23 23 Sudeste 46 Este 0 -- -- 22
2019-02-22 12:00:00 23.2 24 Sudeste 41 Sudeste 0 -- -- 24
2019-02-22 11:00:00 23.8 18 Sudeste 40 Sudeste 0 -- -- 24
2019-02-22 10:00:00 22.5 21 Sudeste 37 Sudeste 0 -- -- 20
2019-02-22 09:00:00 19.9 14 Sudeste 23 Sur 0 -- -- 26
2019-02-22 08:00:00 14.4 7 Sur 21 Sur 0 -- -- 35
2019-02-22 07:00:00 14.5 10 Sur 30 Sur 0 -- -- 35
2019-02-22 06:00:00 13.8 11 Sudeste 22 Sudeste 0 -- -- 39
2019-02-22 05:00:00 12 5 Sur 10 Sudoeste 0 -- -- 43
2019-02-22 04:00:00 11 4 Sur 11 Oeste 0 -- -- 43
2019-02-22 03:00:00 9.5 5 Sudoeste 10 Oeste 0 -- -- 56
2019-02-22 02:00:00 10.1 5 Noroeste 10 Oeste 0 -- -- 54
2019-02-22 01:00:00 11.1 5 Sur 10 Sur 0 -- -- 48
2019-02-22 00:00:00 9.8 5 Sur 11 Sur 0 -- -- 55
2019-02-21 23:00:00 8.7 4 Oeste 9 Oeste 0 -- -- 75
2019-02-21 22:00:00 8.5 5 Sudoeste 12 Oeste 0 -- -- 82
2019-02-21 21:00:00 10.3 8 Oeste 13 Oeste 0 -- -- 87
2019-02-21 20:00:00 10 5 Oeste 9 Oeste 0 -- -- 88
2019-02-21 19:00:00 10.3 4 Oeste 8 Oeste 0 -- -- 87
2019-02-21 18:00:00 15.2 4 Oeste 9 Nordeste 0 -- -- 69
2019-02-21 17:00:00 19.9 5 Nordeste 14 Nordeste 0 -- -- 60
2019-02-21 16:00:00 19.9 7 Nordeste 16 Este 0 -- -- 57
2019-02-21 15:00:00 18.8 9 Sudeste 20 Este 0 -- -- 67
2019-02-21 14:00:00 18.4 9 Este 20 Sudeste 0 -- -- 74
2019-02-21 13:00:00 16.5 13 Sudeste 19 Sudeste 0 -- -- 78
2019-02-21 12:00:00 16.8 10 Este 23 Este 0 -- -- 77
2019-02-21 11:00:00 16.6 11 Este 22 Sudeste 0 -- -- 78
2019-02-21 10:00:00 16.3 10 Sudeste 17 Este 0 -- -- 75
2019-02-21 09:00:00 15.3 6 Sudeste 10 Sudeste 0.2 -- -- 75
2019-02-21 08:00:00 7.8 6 Sudoeste 12 Sudoeste 0 -- -- 100
2019-02-21 07:00:00 7.5 5 Sudoeste 10 Sudoeste 0 -- -- 99
2019-02-21 06:00:00 8.3 6 Sudoeste 12 Sudoeste 0 -- -- 99
2019-02-21 05:00:00 8.1 6 Sudoeste 12 Oeste 0 -- -- 98
2019-02-21 04:00:00 8 7 Sudoeste 12 Sudoeste 0 -- -- 99
2019-02-21 03:00:00 8.3 6 Sudoeste 12 Sur 0 -- -- 100
2019-02-21 02:00:00 7.8 6 Sudoeste 11 Sudoeste 0 -- -- 100
2019-02-21 01:00:00 8.4 5 Sur 8 Sur 0 -- -- 100
2019-02-21 00:00:00 8.4 5 Sur 10 Sudeste 0 -- -- 100
2019-02-20 23:00:00 10 4 Sudeste 14 Este 0 -- -- 99
2019-02-20 22:00:00 11 6 Este 12 Este 0 -- -- 99
2019-02-20 21:00:00 11 4 Sudeste 9 Este 0 -- -- 98
2019-02-20 20:00:00 11 4 Nordeste 12 Este 0 -- -- 97
2019-02-20 19:00:00 11.1 6 Este 12 Sudeste 0 -- -- 95
2019-02-20 18:00:00 11.8 5 Este 12 Nordeste 0 -- -- 90
2019-02-20 17:00:00 12.2 5 Este 13 Nordeste 0 -- -- 87
2019-02-20 16:00:00 13.3 7 Este 16 Este 0 -- -- 80
2019-02-20 15:00:00 15.3 4 Este 18 Nordeste 0 -- -- 71
2019-02-20 14:00:00 16.4 12 Nordeste 23 Este 0 -- -- 67
2019-02-20 13:00:00 16.8 10 Este 25 Este 0 -- -- 58
2019-02-20 12:00:00 16.6 13 Este 25 Este 0 -- -- 61
2019-02-20 11:00:00 15.9 13 Sudeste 22 Sudeste 0 -- -- 61
2019-02-20 10:00:00 11.8 9 Sudeste 16 Este 0 -- -- 79
2019-02-20 09:00:00 10.3 4 Oeste 9 Sur 0 -- -- 85
2019-02-20 08:00:00 9.3 3 Oeste 12 Norte 0 -- -- 86
2019-02-20 07:00:00 9.2 6 Sur 12 Sur 0 -- -- 82
2019-02-20 06:00:00 8.3 4 Sur 11 Sudoeste 0 -- -- 86
2019-02-20 05:00:00 7.3 4 Oeste 9 Norte 0 -- -- 89
2019-02-20 04:00:00 9.2 4 Noroeste 10 Noroeste 0 -- -- 89
2019-02-20 03:00:00 8 3 Noroeste 8 Oeste 0 -- -- 96
2019-02-20 02:00:00 8.1 4 Sudoeste 7 Noroeste 0 -- -- 92
2019-02-20 01:00:00 9.4 4 Noroeste 9 Norte 0 -- -- 90
2019-02-20 00:00:00 9.5 4 Noroeste 8 Noroeste 0 -- -- 93